Rolling Fork, Mississippi
Current Conditions -  °F | °C
As of 3:53 PM on Thursday 23 Oct 2014 (Local Time) from KTVR Reporting Station
Clear Clear  
Wind Chill: 67°   Ceiling: Unl
Heat Index: 67°   Visibility: 10mi
Dew Point: 48°   Wind: 5mph
Humidity: 51%   Direction: 350°N
Pressure: 30.1"   Gusts: NA
Location:  32.91°N, 90.88°W
Report Text: KTVR 232053Z AUTO 35004KT 10SM CLR 19/09 A3010 RMK AO2 SLP201 T01940089 55015
Loading
Personal Weather Stations






























Interactive Weather Map
Tropical Storm Tracking
New forecast layout! Learn more

10-Day Weather Forecast

Advertisements
Track Severe Weather on mobile